Time;durP1;ratioP1;P1;durP2;ratioP2;P2;SDS_P1;SDS_P2;PMS_P1;PMS_P2;Temp;Humidity;BMP_temperature;BMP_pressure;BME280_temperature;BME280_humidity;BME280_pressure;Samples;Min_cycle;Max_cycle;Signal;HPM_P1;HPM_P2
2023/11/29 00:02:08;;;;;;;9.95;7.30;;;17.90;42.50;;;;;;5073166;28;20441;-61
2023/11/29 00:04:35;;;;;;;10.45;6.80;;;17.90;41.80;;;;;;5073720;28;20554;-61
2023/11/29 00:07:02;;;;;;;9.15;6.57;;;17.90;41.80;;;;;;5073430;28;20225;-61
2023/11/29 00:09:30;;;;;;;8.93;6.47;;;17.90;41.90;;;;;;5073017;28;20223;-59
2023/11/29 00:11:57;;;;;;;9.25;7.10;;;17.90;41.90;;;;;;5073320;28;20226;-60
2023/11/29 00:14:24;;;;;;;12.07;6.65;;;17.90;41.90;;;;;;5073701;28;20278;-60
2023/11/29 00:16:51;;;;;;;8.85;6.40;;;17.90;41.90;;;;;;5072595;28;20718;-60
2023/11/29 00:19:18;;;;;;;11.60;6.45;;;17.80;42.50;;;;;;5073377;28;20191;-61
2023/11/29 00:21:44;;;;;;;10.10;6.68;;;17.80;42.50;;;;;;5073290;28;20326;-60
2023/11/29 00:24:11;;;;;;;8.07;6.30;;;17.80;41.80;;;;;;5072626;28;20193;-62
2023/11/29 00:26:39;;;;;;;8.38;6.40;;;17.80;41.80;;;;;;5073429;28;20310;-59
2023/11/29 00:29:06;;;;;;;10.13;6.38;;;17.80;41.80;;;;;;5073007;28;20225;-59
2023/11/29 00:31:34;;;;;;;10.48;6.97;;;17.80;41.80;;;;;;5072864;28;20211;-59
2023/11/29 00:34:01;;;;;;;9.23;6.65;;;17.80;41.90;;;;;;5073028;28;20215;-57
2023/11/29 00:36:28;;;;;;;11.18;6.85;;;17.80;41.80;;;;;;5072877;28;20241;-60
2023/11/29 00:38:54;;;;;;;10.15;6.97;;;17.80;41.90;;;;;;5072634;28;20273;-59
2023/11/29 00:41:21;;;;;;;10.82;6.55;;;17.80;41.90;;;;;;5072776;28;20220;-61
2023/11/29 00:43:49;;;;;;;10.23;6.65;;;17.80;41.90;;;;;;5072913;28;20277;-57
2023/11/29 00:46:16;;;;;;;8.00;6.28;;;17.70;41.80;;;;;;5072506;28;20214;-61
2023/11/29 00:48:43;;;;;;;9.25;6.75;;;17.70;41.80;;;;;;5072757;28;20194;-59
2023/11/29 00:51:10;;;;;;;9.85;6.63;;;17.70;41.80;;;;;;5072668;28;20225;-59
2023/11/29 00:53:37;;;;;;;8.65;6.25;;;17.70;42.10;;;;;;5072180;28;20688;-61
2023/11/29 00:56:04;;;;;;;8.38;6.40;;;17.70;42.50;;;;;;5072511;28;20317;-61
2023/11/29 00:58:31;;;;;;;7.70;6.13;;;17.70;41.80;;;;;;5072624;28;20618;-61
2023/11/29 01:00:59;;;;;;;9.13;6.00;;;17.70;42.40;;;;;;5072138;28;20190;-57
2023/11/29 01:03:26;;;;;;;9.05;5.97;;;17.70;41.80;;;;;;5072636;28;20290;-61
2023/11/29 01:05:53;;;;;;;8.77;5.78;;;17.70;42.50;;;;;;5071114;28;20766;-58
2023/11/29 01:08:24;;;;;;;7.63;5.60;;;17.70;42.40;;;;;;5072138;28;20191;-61
2023/11/29 01:10:51;;;;;;;8.15;5.95;;;17.70;41.80;;;;;;5071962;28;20703;-60
2023/11/29 01:13:19;;;;;;;6.80;5.75;;;17.70;41.80;;;;;;5072737;28;20195;-60
2023/11/29 01:15:46;;;;;;;7.90;5.80;;;17.70;41.80;;;;;;5071977;28;20215;-61
2023/11/29 01:18:14;;;;;;;10.30;6.22;;;17.70;41.80;;;;;;5071915;28;20700;-61
2023/11/29 01:20:41;;;;;;;10.65;6.32;;;17.70;41.80;;;;;;5072368;28;20179;-61
2023/11/29 01:23:08;;;;;;;9.10;5.88;;;17.60;41.80;;;;;;5072070;28;20246;-61
2023/11/29 01:25:35;;;;;;;7.18;5.60;;;17.60;41.80;;;;;;5072275;28;20193;-61
2023/11/29 01:28:03;;;;;;;8.60;5.93;;;17.60;41.80;;;;;;5072199;28;20230;-59
2023/11/29 01:30:30;;;;;;;7.97;5.95;;;17.60;41.80;;;;;;5071965;28;20187;-60
2023/11/29 01:32:57;;;;;;;8.23;6.20;;;17.60;41.80;;;;;;5072508;28;20435;-60
2023/11/29 01:35:25;;;;;;;9.85;6.13;;;17.60;41.80;;;;;;5072193;28;20574;-60
2023/11/29 01:37:52;;;;;;;9.20;6.50;;;17.60;42.40;;;;;;5071979;28;20232;-61
2023/11/29 01:40:20;;;;;;;9.38;6.10;;;17.60;42.40;;;;;;5071764;28;20553;-61
2023/11/29 01:42:47;;;;;;;7.72;6.00;;;17.60;41.80;;;;;;5072374;28;20240;-61
2023/11/29 01:45:13;;;;;;;8.40;6.47;;;17.50;41.70;;;;;;5071863;28;20193;-59
2023/11/29 01:47:40;;;;;;;8.63;5.63;;;17.50;41.70;;;;;;5072032;28;20215;-61
2023/11/29 01:50:10;;;;;;;8.40;6.07;;;17.50;41.70;;;;;;5072021;28;20250;-59
2023/11/29 01:52:38;;;;;;;7.05;5.40;;;17.50;41.70;;;;;;5071299;28;20719;-60
2023/11/29 01:55:09;;;;;;;8.40;6.43;;;17.50;41.70;;;;;;5071974;28;20187;-62
2023/11/29 01:57:36;;;;;;;8.40;6.50;;;17.50;41.80;;;;;;5072245;28;20230;-61
2023/11/29 02:00:04;;;;;;;10.02;5.97;;;17.50;41.70;;;;;;5071102;28;20187;-61
2023/11/29 02:02:31;;;;;;;9.25;5.85;;;17.50;41.70;;;;;;5072015;28;20222;-61
2023/11/29 02:04:58;;;;;;;10.52;6.72;;;17.50;41.70;;;;;;5071915;28;20230;-56
2023/11/29 02:07:26;;;;;;;9.05;5.85;;;17.50;41.70;;;;;;5071560;28;20224;-60
2023/11/29 02:09:54;;;;;;;8.43;5.82;;;17.50;41.70;;;;;;5071475;28;20245;-61
2023/11/29 02:12:21;;;;;;;7.50;5.70;;;17.50;42.40;;;;;;5071705;28;20634;-62
2023/11/29 02:14:48;;;;;;;9.50;6.40;;;17.50;41.70;;;;;;5069591;28;20204;-61
2023/11/29 02:17:15;;;;;;;9.85;6.38;;;17.40;41.70;;;;;;5058929;28;20235;-59
2023/11/29 02:19:41;;;;;;;7.57;5.65;;;17.50;41.80;;;;;;5055243;28;20194;-61
2023/11/29 02:22:09;;;;;;;7.85;5.47;;;17.40;42.30;;;;;;5055212;28;20198;-59
2023/11/29 02:24:41;;;;;;;8.68;5.43;;;17.40;42.40;;;;;;5066420;28;20279;-58
2023/11/29 02:27:09;;;;;;;6.90;5.60;;;17.40;41.70;;;;;;5075463;28;20241;-61
2023/11/29 02:29:38;;;;;;;10.02;5.95;;;17.40;41.70;;;;;;5075101;28;20195;-59
2023/11/29 02:32:06;;;;;;;9.45;5.97;;;17.40;41.70;;;;;;5075163;28;20254;-60
2023/11/29 02:34:35;;;;;;;7.53;5.90;;;17.40;41.70;;;;;;5075408;28;20257;-61
2023/11/29 02:37:02;;;;;;;8.95;5.50;;;17.40;41.70;;;;;;5074620;28;20716;-62
2023/11/29 02:39:29;;;;;;;7.63;5.47;;;17.40;41.70;;;;;;5075298;28;20222;-61
2023/11/29 02:41:56;;;;;;;8.80;5.60;;;17.40;41.80;;;;;;5075144;28;20283;-61
2023/11/29 02:44:24;;;;;;;10.07;5.07;;;17.40;41.70;;;;;;5074798;28;20767;-61
2023/11/29 02:46:51;;;;;;;7.00;5.07;;;17.40;41.70;;;;;;5075151;28;20187;-62
2023/11/29 02:49:18;;;;;;;7.13;5.13;;;17.40;41.80;;;;;;5075124;28;20665;-61
2023/11/29 02:51:45;;;;;;;8.15;5.55;;;17.40;42.40;;;;;;5074479;28;20197;-60
2023/11/29 02:54:12;;;;;;;8.45;5.35;;;17.40;42.40;;;;;;5075011;28;20306;-62
2023/11/29 02:56:38;;;;;;;6.88;5.38;;;17.40;41.80;;;;;;5075045;28;20225;-59
2023/11/29 02:59:05;;;;;;;6.93;5.03;;;17.40;41.80;;;;;;5074219;28;20590;-58
2023/11/29 03:01:33;;;;;;;6.78;5.07;;;17.30;41.70;;;;;;5074663;28;20287;-60
2023/11/29 03:04:00;;;;;;;6.40;4.50;;;17.30;41.70;;;;;;5075308;28;20211;-62
2023/11/29 03:06:27;;;;;;;6.65;4.72;;;17.30;41.70;;;;;;5074451;28;20199;-60
2023/11/29 03:08:54;;;;;;;6.93;4.53;;;17.30;41.80;;;;;;5074596;28;20310;-61
2023/11/29 03:11:21;;;;;;;8.48;5.00;;;17.30;41.80;;;;;;5074508;28;20270;-62
2023/11/29 03:13:48;;;;;;;5.95;4.50;;;17.30;42.40;;;;;;5073941;28;20215;-59
2023/11/29 03:16:14;;;;;;;6.93;5.00;;;17.30;41.80;;;;;;5074145;28;20634;-61
2023/11/29 03:18:43;;;;;;;7.65;4.78;;;17.30;41.80;;;;;;5074025;28;20219;-61
2023/11/29 03:21:09;;;;;;;6.45;4.47;;;17.30;41.80;;;;;;5073914;28;20673;-60
2023/11/29 03:23:36;;;;;;;8.02;4.60;;;17.30;41.80;;;;;;5074333;28;20302;-59
2023/11/29 03:26:04;;;;;;;5.43;4.85;;;17.30;42.50;;;;;;5074436;28;20191;-60
2023/11/29 03:28:31;;;;;;;6.32;4.47;;;17.30;41.80;;;;;;5073150;28;20215;-59
2023/11/29 03:30:58;;;;;;;6.35;4.60;;;17.30;41.80;;;;;;5074489;28;20283;-59
2023/11/29 03:33:25;;;;;;;6.40;4.68;;;17.30;41.80;;;;;;5074480;28;20298;-58
2023/11/29 03:35:53;;;;;;;6.65;4.22;;;17.30;41.80;;;;;;5073312;28;20641;-58
2023/11/29 03:38:20;;;;;;;7.40;4.57;;;17.30;41.80;;;;;;5074203;28;20661;-59
2023/11/29 03:40:47;;;;;;;5.90;4.22;;;17.30;42.50;;;;;;5074133;28;20251;-61
2023/11/29 03:43:14;;;;;;;5.43;4.68;;;17.30;41.80;;;;;;5073490;28;20190;-60
2023/11/29 03:45:41;;;;;;;5.18;4.40;;;17.30;42.60;;;;;;5074130;28;20250;-61
2023/11/29 03:48:08;;;;;;;6.82;4.43;;;17.30;41.90;;;;;;5074276;28;20277;-61
2023/11/29 03:50:35;;;;;;;5.68;4.03;;;17.30;41.90;;;;;;5073552;28;20247;-60
2023/11/29 03:53:03;;;;;;;8.10;4.57;;;17.30;41.90;;;;;;5073989;28;20187;-60
2023/11/29 03:55:30;;;;;;;7.20;4.00;;;17.30;42.60;;;;;;5073765;28;20305;-61
2023/11/29 03:57:57;;;;;;;5.30;4.32;;;17.20;42.50;;;;;;5073370;28;20225;-59
2023/11/29 04:00:24;;;;;;;6.05;4.05;;;17.30;41.90;;;;;;5073809;28;20214;-60
2023/11/29 04:02:51;;;;;;;5.55;4.15;;;17.20;41.80;;;;;;5073711;28;20187;-61
2023/11/29 04:05:18;;;;;;;6.22;4.05;;;17.30;42.00;;;;;;5073142;28;20768;-60
2023/11/29 04:07:45;;;;;;;5.05;4.07;;;17.20;41.80;;;;;;5073397;28;20238;-61
2023/11/29 04:10:13;;;;;;;5.88;4.00;;;17.20;41.90;;;;;;5073032;28;20722;-59
2023/11/29 04:12:40;;;;;;;4.60;4.10;;;17.20;41.90;;;;;;5073148;28;20202;-60
2023/11/29 04:15:08;;;;;;;4.88;3.80;;;17.20;41.90;;;;;;5073498;28;20240;-58
2023/11/29 04:17:35;;;;;;;6.53;3.70;;;17.20;41.90;;;;;;5073321;28;20211;-59
2023/11/29 04:20:01;;;;;;;5.35;3.88;;;17.20;41.90;;;;;;5072556;28;20215;-56
2023/11/29 04:22:28;;;;;;;6.32;4.18;;;17.20;41.90;;;;;;5073415;28;20283;-60
2023/11/29 04:24:55;;;;;;;4.90;3.88;;;17.20;41.90;;;;;;5073282;28;20306;-61
2023/11/29 04:27:23;;;;;;;5.07;3.45;;;17.20;41.90;;;;;;5073160;28;20187;-59
2023/11/29 04:29:50;;;;;;;5.10;3.92;;;17.20;42.00;;;;;;5073187;28;20306;-61
2023/11/29 04:32:17;;;;;;;5.25;3.78;;;17.20;41.90;;;;;;5073089;28;20197;-61
2023/11/29 04:34:44;;;;;;;5.53;4.13;;;17.10;42.50;;;;;;5072510;28;20582;-61
2023/11/29 04:37:10;;;;;;;6.90;3.90;;;17.20;41.90;;;;;;5073030;28;20228;-61
2023/11/29 04:39:37;;;;;;;4.93;4.10;;;17.10;41.90;;;;;;5072620;28;20309;-61
2023/11/29 04:42:04;;;;;;;5.85;4.07;;;17.10;41.90;;;;;;5072577;28;20241;-59
2023/11/29 04:44:33;;;;;;;5.55;4.20;;;17.10;41.90;;;;;;5072566;28;20652;-58
2023/11/29 04:46:59;;;;;;;6.10;4.15;;;17.10;41.90;;;;;;5072663;28;20728;-62
2023/11/29 04:49:26;;;;;;;5.63;3.83;;;17.10;42.00;;;;;;5072187;28;20197;-59
2023/11/29 04:51:53;;;;;;;4.10;3.60;;;17.20;42.00;;;;;;5072813;28;20278;-61
2023/11/29 04:54:20;;;;;;;4.10;3.53;;;17.10;42.00;;;;;;5072761;28;20274;-59
2023/11/29 04:56:47;;;;;;;4.80;3.50;;;17.10;42.00;;;;;;5072228;28;20227;-61
2023/11/29 04:59:14;;;;;;;5.03;3.33;;;17.10;42.00;;;;;;5072680;28;20183;-60
2023/11/29 05:01:42;;;;;;;6.00;3.80;;;17.10;42.00;;;;;;5072714;28;20301;-59
2023/11/29 05:04:09;;;;;;;5.07;3.40;;;17.10;42.00;;;;;;5072276;28;20210;-58
2023/11/29 05:06:36;;;;;;;4.53;3.38;;;17.10;42.60;;;;;;5072655;28;20566;-57
2023/11/29 05:09:05;;;;;;;4.28;3.53;;;17.10;42.00;;;;;;5072336;28;20194;-60
2023/11/29 05:11:32;;;;;;;4.22;3.13;;;17.10;42.00;;;;;;5071540;28;20685;-61
2023/11/29 05:13:59;;;;;;;4.45;3.42;;;17.10;42.00;;;;;;5072500;28;20293;-59
2023/11/29 05:16:26;;;;;;;5.03;3.60;;;17.10;42.10;;;;;;5072350;28;20301;-62
2023/11/29 05:18:54;;;;;;;4.65;3.42;;;17.10;42.00;;;;;;5072040;28;20186;-58
2023/11/29 05:21:21;;;;;;;5.53;3.38;;;17.10;42.00;;;;;;5072374;28;20508;-58
2023/11/29 05:23:48;;;;;;;4.68;3.80;;;17.00;42.60;;;;;;5071964;28;20187;-62
2023/11/29 05:26:15;;;;;;;4.03;3.28;;;17.10;42.10;;;;;;5071935;28;20227;-61
2023/11/29 05:28:42;;;;;;;3.97;3.42;;;17.10;42.10;;;;;;5072309;28;20652;-60
2023/11/29 05:31:08;;;;;;;5.50;3.85;;;17.10;42.10;;;;;;5072355;28;20225;-57
2023/11/29 05:33:35;;;;;;;3.20;2.90;;;17.00;42.00;;;;;;5071924;28;20223;-61
2023/11/29 05:36:05;;;;;;;4.93;3.72;;;17.00;42.10;;;;;;5072196;28;20298;-60
2023/11/29 05:38:32;;;;;;;4.43;2.85;;;17.00;42.20;;;;;;5071955;28;20639;-60
2023/11/29 05:41:00;;;;;;;5.10;3.10;;;17.10;42.20;;;;;;5071514;28;20218;-61
2023/11/29 05:43:27;;;;;;;4.68;3.05;;;17.10;42.90;;;;;;5072079;28;20190;-61
2023/11/29 05:45:53;;;;;;;4.50;3.38;;;17.20;42.20;;;;;;5072125;28;20579;-58
2023/11/29 05:48:20;;;;;;;4.60;3.38;;;17.30;42.30;;;;;;5071764;28;20273;-61
2023/11/29 05:50:47;;;;;;;4.25;3.03;;;17.30;42.80;;;;;;5071765;28;20273;-62
2023/11/29 05:53:17;;;;;;;3.90;3.08;;;17.50;42.80;;;;;;5074920;28;20187;-60
2023/11/29 05:55:44;;;;;;;3.45;3.13;;;17.50;41.90;;;;;;5075637;28;20196;-61
2023/11/29 05:58:11;;;;;;;4.20;2.95;;;17.60;41.80;;;;;;5076017;28;20222;-61
2023/11/29 06:00:38;;;;;;;5.60;3.45;;;17.80;41.90;;;;;;5076238;28;20190;-61
2023/11/29 06:03:05;;;;;;;4.72;3.00;;;17.80;42.30;;;;;;5075625;28;20214;-57
2023/11/29 06:05:32;;;;;;;4.68;2.85;;;18.00;41.60;;;;;;5075706;28;20183;-61
2023/11/29 06:07:58;;;;;;;4.93;3.17;;;18.10;41.50;;;;;;5076130;28;20249;-59
2023/11/29 06:10:27;;;;;;;4.32;2.70;;;18.10;41.40;;;;;;5075078;28;20218;-60
2023/11/29 06:12:54;;;;;;;4.38;2.72;;;18.20;41.90;;;;;;5075870;28;20225;-60
2023/11/29 06:15:20;;;;;;;4.90;3.10;;;18.30;41.90;;;;;;5075871;28;20289;-60
2023/11/29 06:17:47;;;;;;;3.67;2.80;;;18.30;41.10;;;;;;5074985;28;20234;-59
2023/11/29 06:20:18;;;;;;;4.07;3.00;;;18.40;41.70;;;;;;5075654;28;20572;-58
2023/11/29 06:22:44;;;;;;;3.90;3.13;;;18.50;41.60;;;;;;5075468;28;20215;-58
2023/11/29 06:25:11;;;;;;;5.25;2.90;;;18.50;40.80;;;;;;5075159;28;20198;-61
2023/11/29 06:27:39;;;;;;;3.67;2.95;;;18.60;40.80;;;;;;5075414;28;20329;-59
2023/11/29 06:30:08;;;;;;;3.85;3.20;;;18.60;40.60;;;;;;5075444;28;20265;-59
2023/11/29 06:32:36;;;;;;;3.78;2.60;;;18.70;40.60;;;;;;5075176;28;20250;-60
2023/11/29 06:35:03;;;;;;;4.80;2.95;;;18.70;40.40;;;;;;5075396;28;20384;-60
2023/11/29 06:37:30;;;;;;;5.25;3.03;;;18.80;40.40;;;;;;5075323;28;20265;-60
2023/11/29 06:39:58;;;;;;;3.38;2.80;;;18.80;40.40;;;;;;5074904;28;20222;-60
2023/11/29 06:42:25;;;;;;;4.43;3.13;;;18.90;40.40;;;;;;5075242;28;20219;-57
2023/11/29 06:44:53;;;;;;;3.90;2.88;;;18.90;40.40;;;;;;5075122;28;20197;-58
2023/11/29 06:47:20;;;;;;;3.53;2.80;;;19.00;40.50;;;;;;5074765;28;20306;-59
2023/11/29 06:49:48;;;;;;;4.28;2.97;;;19.00;40.40;;;;;;5074952;28;20187;-60
2023/11/29 06:52:15;;;;;;;4.53;3.03;;;19.00;40.30;;;;;;5074709;28;20782;-60
2023/11/29 06:54:42;;;;;;;3.63;3.00;;;19.10;40.30;;;;;;5074899;28;20201;-60
2023/11/29 06:57:09;;;;;;;3.85;2.63;;;19.10;40.20;;;;;;5074481;28;20715;-59
2023/11/29 06:59:35;;;;;;;4.55;3.08;;;19.10;40.10;;;;;;5074603;28;20187;-59
2023/11/29 07:02:04;;;;;;;3.92;2.70;;;19.20;40.10;;;;;;5074552;28;20740;-61
2023/11/29 07:04:31;;;;;;;3.40;2.70;;;19.20;40.00;;;;;;5074600;28;20264;-59
2023/11/29 07:07:00;;;;;;;4.10;2.75;;;19.20;40.00;;;;;;5074514;28;20191;-60
2023/11/29 07:09:28;;;;;;;4.45;2.95;;;19.20;39.90;;;;;;5074501;28;20242;-60
2023/11/29 07:11:54;;;;;;;3.92;2.72;;;19.30;40.00;;;;;;5074461;28;20270;-60
2023/11/29 07:14:23;;;;;;;3.78;2.80;;;19.30;39.90;;;;;;5074379;28;20211;-57
2023/11/29 07:16:50;;;;;;;8.15;2.70;;;19.30;39.90;;;;;;5074547;28;20680;-59
2023/11/29 07:19:18;;;;;;;3.47;2.80;;;19.30;39.80;;;;;;5074081;28;20230;-61
2023/11/29 07:21:45;;;;;;;2.80;2.42;;;19.30;39.80;;;;;;5074220;28;20191;-60
2023/11/29 07:24:12;;;;;;;3.67;2.67;;;19.30;40.40;;;;;;5074314;28;20218;-58
2023/11/29 07:26:39;;;;;;;3.13;2.50;;;19.40;39.90;;;;;;5074428;28;20191;-59
2023/11/29 07:29:06;;;;;;;2.67;2.30;;;19.40;39.80;;;;;;5074213;28;20301;-59
2023/11/29 07:31:34;;;;;;;2.50;2.15;;;19.40;39.80;;;;;;5074360;28;20328;-58
2023/11/29 07:34:01;;;;;;;3.95;2.38;;;19.40;40.50;;;;;;5073940;28;20609;-57
2023/11/29 07:36:29;;;;;;;3.03;2.38;;;19.40;39.70;;;;;;5074227;28;20281;-56
2023/11/29 07:38:56;;;;;;;2.90;2.25;;;19.40;40.40;;;;;;5074214;28;20234;-56
2023/11/29 07:41:23;;;;;;;3.63;2.30;;;19.40;40.40;;;;;;5073682;28;20195;-60
2023/11/29 07:43:49;;;;;;;3.50;2.72;;;19.40;39.70;;;;;;5073806;28;20602;-55
2023/11/29 07:46:17;;;;;;;2.92;2.30;;;19.50;39.80;;;;;;5073951;28;20197;-59
2023/11/29 07:48:44;;;;;;;3.13;2.28;;;19.50;39.70;;;;;;5059016;28;20930;-59
2023/11/29 07:51:10;;;;;;;2.60;1.98;;;19.50;39.80;;;;;;5054362;28;20191;-60
2023/11/29 07:53:39;;;;;;;3.03;2.30;;;19.50;40.40;;;;;;5063088;28;20223;-60
2023/11/29 07:56:07;;;;;;;3.42;2.17;;;19.50;39.60;;;;;;5072734;28;20277;-60
2023/11/29 07:58:34;;;;;;;3.42;2.33;;;19.50;39.70;;;;;;5072650;28;20239;-60
2023/11/29 08:01:01;;;;;;;3.65;2.50;;;19.50;39.60;;;;;;5066971;28;20700;-60
2023/11/29 08:03:27;;;;;;;2.90;2.15;;;19.50;40.20;;;;;;5058674;28;20223;-60
2023/11/29 08:05:54;;;;;;;3.28;2.45;;;19.50;39.60;;;;;;5066200;28;20229;-60
2023/11/29 08:08:21;;;;;;;3.15;2.15;;;19.40;39.50;;;;;;5065578;28;20202;-60
2023/11/29 08:10:49;;;;;;;5.20;2.70;;;19.40;40.20;;;;;;5066421;28;20969;-61
2023/11/29 08:13:16;;;;;;;3.10;2.45;;;19.40;40.30;;;;;;5056817;28;20209;-60
2023/11/29 08:15:43;;;;;;;4.97;2.40;;;19.40;39.70;;;;;;5068837;28;20240;-60
2023/11/29 08:18:10;;;;;;;3.75;2.50;;;19.40;39.70;;;;;;5087077;28;20222;-60
2023/11/29 08:20:37;;;;;;;5.90;2.70;;;19.30;39.70;;;;;;5059482;28;20199;-60
2023/11/29 08:23:04;;;;;;;3.83;2.33;;;19.30;39.80;;;;;;5056630;28;20747;-58
2023/11/29 08:25:30;;;;;;;3.03;2.50;;;19.30;40.00;;;;;;5062457;28;20330;-58
2023/11/29 08:27:58;;;;;;;5.93;2.35;;;19.40;40.10;;;;;;5065218;28;20202;-59
2023/11/29 08:30:25;;;;;;;9.57;2.72;;;19.40;40.20;;;;;;5068220;28;20712;-60
2023/11/29 08:32:51;;;;;;;5.78;2.83;;;19.40;40.40;;;;;;5066711;28;20741;-60
2023/11/29 08:35:18;;;;;;;6.25;2.75;;;19.50;40.60;;;;;;5067547;28;20223;-60
2023/11/29 08:37:45;;;;;;;3.88;2.80;;;19.50;41.50;;;;;;5068122;28;20217;-61
2023/11/29 08:40:13;;;;;;;6.47;2.53;;;19.50;40.90;;;;;;5067661;28;20223;-61
2023/11/29 08:42:40;;;;;;;3.65;2.30;;;19.50;40.90;;;;;;5085094;28;20190;-59
2023/11/29 08:45:09;;;;;;;3.95;2.47;;;19.60;41.10;;;;;;5088344;28;20217;-61
2023/11/29 08:47:36;;;;;;;4.45;2.60;;;19.60;41.00;;;;;;5068249;28;20186;-60
2023/11/29 08:50:05;;;;;;;3.13;2.20;;;19.70;41.10;;;;;;5048209;28;20228;-55
2023/11/29 08:52:32;;;;;;;4.03;2.10;;;19.70;41.10;;;;;;5065572;28;20624;-60
2023/11/29 08:54:59;;;;;;;5.72;2.67;;;19.80;41.20;;;;;;5067031;28;20225;-57
2023/11/29 08:57:26;;;;;;;9.00;2.55;;;19.80;41.20;;;;;;5067565;28;20198;-60
2023/11/29 08:59:53;;;;;;;5.05;2.20;;;19.80;41.20;;;;;;5067666;28;20604;-59
2023/11/29 09:02:22;;;;;;;6.65;2.33;;;19.90;41.20;;;;;;5066750;28;20191;-58
2023/11/29 09:04:49;;;;;;;4.05;2.17;;;19.90;41.30;;;;;;5065136;28;20309;-58
2023/11/29 09:07:17;;;;;;;3.05;2.40;;;19.90;41.30;;;;;;5066632;28;20913;-60
2023/11/29 09:09:44;;;;;;;11.27;2.40;;;20.00;41.30;;;;;;5066751;28;20238;-62
2023/11/29 09:12:11;;;;;;;4.75;2.50;;;20.00;42.00;;;;;;5077645;28;20217;-59
2023/11/29 09:14:38;;;;;;;5.88;2.50;;;20.00;41.30;;;;;;5086890;28;20194;-59
2023/11/29 09:17:05;;;;;;;10.93;2.67;;;20.10;41.40;;;;;;5067133;28;20194;-60
2023/11/29 09:19:34;;;;;;;7.88;2.58;;;20.00;41.30;;;;;;5067409;28;20222;-59
2023/11/29 09:22:03;;;;;;;3.72;2.10;;;20.10;41.40;;;;;;5067229;28;20201;-60
2023/11/29 09:24:30;;;;;;;7.95;2.60;;;20.00;41.30;;;;;;5067129;28;20243;-60
2023/11/29 09:26:57;;;;;;;14.95;7.20;;;20.00;41.30;;;;;;5066519;28;20223;-60
2023/11/29 09:29:26;;;;;;;24.52;8.70;;;20.00;41.40;;;;;;5067052;28;20268;-60
2023/11/29 09:31:53;;;;;;;18.77;10.20;;;20.00;41.30;;;;;;5066889;28;20304;-57
2023/11/29 09:34:20;;;;;;;24.92;11.30;;;20.00;41.30;;;;;;5067802;28;20187;-60
2023/11/29 09:36:50;;;;;;;25.60;12.15;;;20.00;42.00;;;;;;5067206;28;20221;-59
2023/11/29 09:39:17;;;;;;;26.35;11.80;;;20.00;41.30;;;;;;5066660;28;20592;-60
2023/11/29 09:41:45;;;;;;;26.05;10.60;;;20.00;42.00;;;;;;5067210;28;20242;-58
2023/11/29 09:44:12;;;;;;;28.48;10.55;;;20.00;42.40;;;;;;5066851;28;20321;-60
2023/11/29 09:46:39;;;;;;;16.52;7.80;;;20.00;41.80;;;;;;5065807;28;20252;-60
2023/11/29 09:49:07;;;;;;;17.10;7.38;;;20.00;41.70;;;;;;5065625;28;20449;-61
2023/11/29 09:51:34;;;;;;;16.95;6.25;;;20.10;41.80;;;;;;5065391;28;20215;-60
2023/11/29 09:54:03;;;;;;;14.75;6.20;;;20.10;41.70;;;;;;5065153;28;20240;-59
2023/11/29 09:56:30;;;;;;;9.20;4.95;;;20.20;41.60;;;;;;5067895;28;20218;-60
2023/11/29 09:58:58;;;;;;;11.40;4.97;;;20.30;41.60;;;;;;5066487;28;20222;-60
2023/11/29 10:01:26;;;;;;;8.70;4.15;;;20.30;41.60;;;;;;5066082;28;20723;-60
2023/11/29 10:04:03;;;;;;;9.90;4.43;;;20.40;41.70;;;;;;5066865;28;20668;-59
2023/11/29 10:06:30;;;;;;;12.77;4.45;;;20.40;41.60;;;;;;5067271;28;20218;-60
2023/11/29 10:08:57;;;;;;;11.57;4.00;;;20.40;41.60;;;;;;5065809;28;20191;-59
2023/11/29 10:11:29;;;;;;;10.23;4.15;;;20.50;41.60;;;;;;5076884;28;20810;-55
2023/11/29 10:13:57;;;;;;;10.07;4.20;;;20.40;42.10;;;;;;5073551;28;20199;-60
2023/11/29 10:16:24;;;;;;;6.03;3.50;;;20.50;42.10;;;;;;5066271;28;20214;-58
2023/11/29 10:18:51;;;;;;;17.48;4.57;;;20.50;41.40;;;;;;5066018;28;20305;-60
2023/11/29 10:21:23;;;;;;;7.95;3.60;;;20.50;41.40;;;;;;5046544;28;20282;-60
2023/11/29 10:23:51;;;;;;;10.30;3.88;;;20.50;41.50;;;;;;5065539;28;20215;-60
2023/11/29 10:26:18;;;;;;;10.27;3.83;;;20.40;41.40;;;;;;5063491;28;20205;-59
2023/11/29 10:28:47;;;;;;;7.88;3.70;;;20.40;41.30;;;;;;5062987;28;20203;-60
2023/11/29 10:31:16;;;;;;;8.73;3.90;;;20.40;41.20;;;;;;5072844;28;20272;-57
2023/11/29 10:33:47;;;;;;;5.60;3.22;;;20.40;41.20;;;;;;5065704;28;20206;-60
2023/11/29 10:36:14;;;;;;;6.57;3.33;;;20.40;41.10;;;;;;5064591;28;20256;-60
2023/11/29 10:38:47;;;;;;;5.05;3.42;;;20.40;41.00;;;;;;5054161;28;20729;-60
2023/11/29 10:41:18;;;;;;;6.22;3.08;;;20.30;40.90;;;;;;5058817;28;20204;-60
2023/11/29 10:43:49;;;;;;;6.10;3.38;;;20.30;41.00;;;;;;5069930;28;20249;-60
2023/11/29 10:46:21;;;;;;;6.00;3.38;;;20.30;41.60;;;;;;5068786;28;20191;-58
2023/11/29 10:48:56;;;;;;;5.50;2.75;;;20.20;41.00;;;;;;5073987;28;20258;-58
2023/11/29 10:51:24;;;;;;;6.60;3.10;;;20.20;41.00;;;;;;5041935;28;20492;-61
2023/11/29 10:53:52;;;;;;;6.45;3.25;;;20.10;41.00;;;;;;5046896;28;20263;-58
2023/11/29 10:56:23;;;;;;;10.50;2.97;;;20.10;41.10;;;;;;5073091;28;20195;-61
2023/11/29 10:59:11;;;;;;;4.20;2.83;;;20.00;41.10;;;;;;5082309;28;20274;-59
2023/11/29 11:01:42;;;;;;;8.52;3.03;;;20.00;41.30;;;;;;5073493;28;20478;-61
2023/11/29 11:04:10;;;;;;;4.60;2.65;;;19.90;41.30;;;;;;5072816;28;20649;-60
2023/11/29 11:06:40;;;;;;;3.78;2.60;;;19.90;41.30;;;;;;5047799;28;20264;-60
2023/11/29 11:09:32;;;;;;;5.90;3.15;;;19.90;41.30;;;;;;5076967;28;20233;-60
2023/11/29 11:12:03;;;;;;;9.02;2.90;;;19.80;41.20;;;;;;5068682;28;20207;-56
2023/11/29 11:14:44;;;;;;;4.55;2.60;;;19.80;41.20;;;;;;5082218;28;20197;-59
2023/11/29 11:17:14;;;;;;;3.33;2.45;;;19.70;41.30;;;;;;5039860;28;20227;-61
2023/11/29 11:19:43;;;;;;;3.22;2.25;;;19.70;42.00;;;;;;5028188;28;20305;-57
2023/11/29 11:22:17;;;;;;;4.60;2.28;;;19.60;41.30;;;;;;5050656;28;20198;-60
2023/11/29 11:25:03;;;;;;;5.47;2.50;;;19.60;41.30;;;;;;5072566;28;20679;-55
2023/11/29 11:27:37;;;;;;;4.78;2.33;;;19.60;41.90;;;;;;5073611;28;20210;-59
2023/11/29 11:30:25;;;;;;;4.25;2.22;;;19.50;41.20;;;;;;5082267;28;20671;-61
2023/11/29 11:32:55;;;;;;;2.75;2.25;;;19.50;41.30;;;;;;5072051;28;20213;-60
2023/11/29 11:35:24;;;;;;;3.20;2.45;;;19.50;41.30;;;;;;5024140;28;20221;-60
2023/11/29 11:37:54;;;;;;;2.92;1.90;;;19.50;41.30;;;;;;5065853;28;20303;-60
2023/11/29 11:40:23;;;;;;;3.35;2.17;;;19.50;41.40;;;;;;5084683;28;20218;-60
2023/11/29 11:42:50;;;;;;;2.30;2.03;;;19.40;41.40;;;;;;5081410;28;20219;-60
2023/11/29 11:45:19;;;;;;;5.88;2.47;;;19.40;41.40;;;;;;5077387;28;20194;-60
2023/11/29 11:47:46;;;;;;;2.70;2.05;;;19.40;41.50;;;;;;5075625;28;20214;-59
2023/11/29 11:50:14;;;;;;;3.22;2.08;;;19.40;41.50;;;;;;5083634;28;20278;-57
2023/11/29 11:52:41;;;;;;;3.00;2.22;;;19.40;41.60;;;;;;5069995;28;20696;-59
2023/11/29 11:55:10;;;;;;;3.47;1.92;;;19.30;41.50;;;;;;5076485;28;20194;-60
2023/11/29 11:57:39;;;;;;;2.28;1.77;;;19.30;41.60;;;;;;5076677;28;20187;-59
2023/11/29 12:00:08;;;;;;;3.22;2.10;;;19.30;41.70;;;;;;5070501;28;20217;-60
2023/11/29 12:02:37;;;;;;;6.00;2.40;;;19.30;41.70;;;;;;5083914;28;20195;-57
2023/11/29 12:05:05;;;;;;;5.15;2.00;;;19.20;41.70;;;;;;5075213;28;20202;-60
2023/11/29 12:07:32;;;;;;;4.00;2.30;;;19.20;41.70;;;;;;5079962;28;20269;-59
2023/11/29 12:10:00;;;;;;;3.47;2.00;;;19.20;42.40;;;;;;5073629;28;20245;-60
2023/11/29 12:12:29;;;;;;;2.60;1.88;;;19.20;41.80;;;;;;5070273;28;20603;-59
2023/11/29 12:14:56;;;;;;;2.88;1.80;;;19.20;41.80;;;;;;5081953;28;20908;-60
2023/11/29 12:17:23;;;;;;;3.28;1.92;;;19.20;41.90;;;;;;5076915;28;20197;-60
2023/11/29 12:19:52;;;;;;;2.40;2.10;;;19.20;41.90;;;;;;5075233;28;20229;-60
2023/11/29 12:22:19;;;;;;;2.15;1.70;;;19.20;42.00;;;;;;5069431;28;20421;-60
2023/11/29 12:24:47;;;;;;;2.08;1.63;;;19.10;42.00;;;;;;5080395;28;20222;-60
2023/11/29 12:27:16;;;;;;;2.33;1.95;;;19.10;42.00;;;;;;5079193;28;20666;-60
2023/11/29 12:29:46;;;;;;;3.05;2.03;;;19.10;42.10;;;;;;5075793;28;20268;-57
2023/11/29 12:32:13;;;;;;;5.05;2.50;;;19.10;42.20;;;;;;5083292;28;20308;-59
2023/11/29 12:34:43;;;;;;;2.00;1.65;;;19.10;42.90;;;;;;5083365;28;20215;-55
2023/11/29 12:37:12;;;;;;;2.05;1.85;;;19.10;42.20;;;;;;5074206;28;20186;-59
2023/11/29 12:39:40;;;;;;;2.85;1.98;;;19.10;42.20;;;;;;5075036;28;20229;-60
2023/11/29 12:42:09;;;;;;;1.90;1.70;;;19.00;42.20;;;;;;5082590;28;20197;-59
2023/11/29 12:44:36;;;;;;;2.22;1.95;;;19.00;42.20;;;;;;5083050;28;20230;-57
2023/11/29 12:47:04;;;;;;;1.95;1.52;;;19.00;42.30;;;;;;5074052;28;20226;-61
2023/11/29 12:49:32;;;;;;;2.67;2.05;;;19.00;42.40;;;;;;5076951;28;20325;-60